sensor_id;sensor_type;location;lat;lon;timestamp;pressure;altitude;pressure_sealevel;temperature;humidity
69219;BME280;56232;53.384;-2.732;2022-12-16T00:02:05;101266.59;;;-5.66;38.51
69219;BME280;56232;53.384;-2.732;2022-12-16T00:04:31;101263.50;;;-5.62;38.77
69219;BME280;56232;53.384;-2.732;2022-12-16T00:06:56;101262.31;;;-5.53;38.87
69219;BME280;56232;53.384;-2.732;2022-12-16T00:09:22;101262.96;;;-5.99;38.80
69219;BME280;56232;53.384;-2.732;2022-12-16T00:11:47;101266.08;;;-5.32;38.70
69219;BME280;56232;53.384;-2.732;2022-12-16T00:14:13;101269.68;;;-5.44;38.78
69219;BME280;56232;53.384;-2.732;2022-12-16T00:16:39;101268.18;;;-6.01;38.73
69219;BME280;56232;53.384;-2.732;2022-12-16T00:19:04;101266.83;;;-6.60;38.80
69219;BME280;56232;53.384;-2.732;2022-12-16T00:21:30;101266.50;;;-6.66;38.78
69219;BME280;56232;53.384;-2.732;2022-12-16T00:23:56;101268.26;;;-6.74;38.86
69219;BME280;56232;53.384;-2.732;2022-12-16T00:26:26;101270.19;;;-5.61;39.01
69219;BME280;56232;53.384;-2.732;2022-12-16T00:28:47;101266.05;;;-5.64;38.94
69219;BME280;56232;53.384;-2.732;2022-12-16T00:31:13;101265.68;;;-6.30;39.01
69219;BME280;56232;53.384;-2.732;2022-12-16T00:33:38;101264.09;;;-5.66;38.95
69219;BME280;56232;53.384;-2.732;2022-12-16T00:36:04;101265.90;;;-6.28;39.00
69219;BME280;56232;53.384;-2.732;2022-12-16T00:38:29;101268.33;;;-6.19;38.95
69219;BME280;56232;53.384;-2.732;2022-12-16T00:40:54;101266.01;;;-6.21;38.92
69219;BME280;56232;53.384;-2.732;2022-12-16T00:43:19;101265.15;;;-5.57;38.92
69219;BME280;56232;53.384;-2.732;2022-12-16T00:45:45;101259.95;;;-5.52;38.88
69219;BME280;56232;53.384;-2.732;2022-12-16T00:48:10;101259.95;;;-5.42;38.80
69219;BME280;56232;53.384;-2.732;2022-12-16T00:50:35;101258.49;;;-6.48;38.64
69219;BME280;56232;53.384;-2.732;2022-12-16T00:53:01;101254.04;;;-6.50;38.56
69219;BME280;56232;53.384;-2.732;2022-12-16T00:55:26;101255.46;;;-6.00;38.49
69219;BME280;56232;53.384;-2.732;2022-12-16T00:57:52;101254.33;;;-5.45;38.43
69219;BME280;56232;53.384;-2.732;2022-12-16T01:00:22;101253.05;;;-6.62;38.40
69219;BME280;56232;53.384;-2.732;2022-12-16T01:02:44;101253.16;;;-5.58;38.32
69219;BME280;56232;53.384;-2.732;2022-12-16T01:05:10;101253.91;;;-6.30;38.42
69219;BME280;56232;53.384;-2.732;2022-12-16T01:07:34;101258.50;;;-6.29;38.36
69219;BME280;56232;53.384;-2.732;2022-12-16T01:09:59;101260.67;;;-6.97;38.40
69219;BME280;56232;53.384;-2.732;2022-12-16T01:12:24;101265.85;;;-5.98;38.52
69219;BME280;56232;53.384;-2.732;2022-12-16T01:14:51;101265.87;;;-6.04;38.70
69219;BME280;56232;53.384;-2.732;2022-12-16T01:17:16;101264.03;;;-6.12;38.31
69219;BME280;56232;53.384;-2.732;2022-12-16T01:19:41;101260.93;;;-6.38;38.22
69219;BME280;56232;53.384;-2.732;2022-12-16T01:22:07;101262.90;;;-6.49;38.69
69219;BME280;56232;53.384;-2.732;2022-12-16T01:24:33;101265.01;;;-6.34;38.69
69219;BME280;56232;53.384;-2.732;2022-12-16T01:27:03;101267.09;;;-6.30;38.70
69219;BME280;56232;53.384;-2.732;2022-12-16T01:29:24;101264.18;;;-6.37;38.56
69219;BME280;56232;53.384;-2.732;2022-12-16T01:31:49;101265.91;;;-6.50;38.47
69219;BME280;56232;53.384;-2.732;2022-12-16T01:34:14;101266.95;;;-6.64;38.60
69219;BME280;56232;53.384;-2.732;2022-12-16T01:36:45;101272.25;;;-7.12;38.61
69219;BME280;56232;53.384;-2.732;2022-12-16T01:39:05;101271.92;;;-6.55;38.63
69219;BME280;56232;53.384;-2.732;2022-12-16T01:41:30;101275.37;;;-6.71;38.71
69219;BME280;56232;53.384;-2.732;2022-12-16T01:46:22;101284.57;;;-6.74;38.88
69219;BME280;56232;53.384;-2.732;2022-12-16T01:48:48;101285.21;;;-6.76;38.84
69219;BME280;56232;53.384;-2.732;2022-12-16T01:51:15;101283.00;;;-6.85;38.85
69219;BME280;56232;53.384;-2.732;2022-12-16T01:53:38;101283.84;;;-6.97;38.93
69219;BME280;56232;53.384;-2.732;2022-12-16T01:56:02;101282.40;;;-6.66;39.03
69219;BME280;56232;53.384;-2.732;2022-12-16T01:58:30;101282.20;;;-7.28;39.22
69219;BME280;56232;53.384;-2.732;2022-12-16T02:00:52;101281.68;;;-6.78;39.26
69219;BME280;56232;53.384;-2.732;2022-12-16T02:03:18;101283.98;;;-7.30;39.28
69219;BME280;56232;53.384;-2.732;2022-12-16T02:05:43;101287.75;;;-6.80;39.36
69219;BME280;56232;53.384;-2.732;2022-12-16T02:08:11;101292.64;;;-6.42;39.43
69219;BME280;56232;53.384;-2.732;2022-12-16T02:10:45;101291.93;;;-7.38;39.39
69219;BME280;56232;53.384;-2.732;2022-12-16T02:13:05;101290.28;;;-6.79;39.26
69219;BME280;56232;53.384;-2.732;2022-12-16T02:15:34;101295.28;;;-6.25;39.25
69219;BME280;56232;53.384;-2.732;2022-12-16T02:17:55;101299.01;;;-6.24;39.33
69219;BME280;56232;53.384;-2.732;2022-12-16T02:20:32;101302.05;;;-7.06;39.37
69219;BME280;56232;53.384;-2.732;2022-12-16T02:22:57;101301.29;;;-6.32;39.29
69219;BME280;56232;53.384;-2.732;2022-12-16T02:25:20;101300.48;;;-6.15;39.15
69219;BME280;56232;53.384;-2.732;2022-12-16T02:27:41;101303.44;;;-6.55;39.00
69219;BME280;56232;53.384;-2.732;2022-12-16T02:30:06;101301.83;;;-6.55;38.92
69219;BME280;56232;53.384;-2.732;2022-12-16T02:32:29;101305.03;;;-5.96;38.63
69219;BME280;56232;53.384;-2.732;2022-12-16T02:34:54;101305.64;;;-6.48;38.59
69219;BME280;56232;53.384;-2.732;2022-12-16T02:37:19;101306.15;;;-6.46;38.58
69219;BME280;56232;53.384;-2.732;2022-12-16T02:39:44;101305.28;;;-6.49;38.55
69219;BME280;56232;53.384;-2.732;2022-12-16T02:42:12;101299.99;;;-6.60;38.64
69219;BME280;56232;53.384;-2.732;2022-12-16T02:44:39;101296.75;;;-6.62;38.60
69219;BME280;56232;53.384;-2.732;2022-12-16T02:46:55;101292.43;;;-6.22;38.67
69219;BME280;56232;53.384;-2.732;2022-12-16T02:51:47;101289.20;;;-6.89;38.87
69219;BME280;56232;53.384;-2.732;2022-12-16T02:54:12;101292.04;;;-7.04;39.07
69219;BME280;56232;53.384;-2.732;2022-12-16T02:56:46;101289.34;;;-7.07;39.11
69219;BME280;56232;53.384;-2.732;2022-12-16T02:59:10;101286.74;;;-6.59;38.98
69219;BME280;56232;53.384;-2.732;2022-12-16T03:01:31;101284.11;;;-6.65;38.96
69219;BME280;56232;53.384;-2.732;2022-12-16T03:03:57;101278.81;;;-6.70;38.94
69219;BME280;56232;53.384;-2.732;2022-12-16T03:06:19;101277.52;;;-6.74;39.10
69219;BME280;56232;53.384;-2.732;2022-12-16T03:08:47;101277.11;;;-6.70;39.12
69219;BME280;56232;53.384;-2.732;2022-12-16T03:11:10;101280.65;;;-7.17;39.18
69219;BME280;56232;53.384;-2.732;2022-12-16T03:13:40;101276.95;;;-7.19;39.10
69219;BME280;56232;53.384;-2.732;2022-12-16T03:16:02;101274.20;;;-7.28;39.20
69219;BME280;56232;53.384;-2.732;2022-12-16T03:18:26;101272.95;;;-6.77;39.19
69219;BME280;56232;53.384;-2.732;2022-12-16T03:20:54;101275.00;;;-6.38;39.08
69219;BME280;56232;53.384;-2.732;2022-12-16T03:23:20;101277.48;;;-6.93;39.18
69219;BME280;56232;53.384;-2.732;2022-12-16T03:25:44;101279.17;;;-6.91;39.06
69219;BME280;56232;53.384;-2.732;2022-12-16T03:28:24;101278.24;;;-6.43;39.05
69219;BME280;56232;53.384;-2.732;2022-12-16T03:30:35;101282.50;;;-6.99;39.18
69219;BME280;56232;53.384;-2.732;2022-12-16T03:33:00;101280.64;;;-6.46;39.18
69219;BME280;56232;53.384;-2.732;2022-12-16T03:35:27;101279.97;;;-6.38;39.18
69219;BME280;56232;53.384;-2.732;2022-12-16T03:37:51;101276.52;;;-7.36;39.24
69219;BME280;56232;53.384;-2.732;2022-12-16T03:40:14;101275.23;;;-6.83;39.35
69219;BME280;56232;53.384;-2.732;2022-12-16T03:42:41;101276.06;;;-6.67;39.37
69219;BME280;56232;53.384;-2.732;2022-12-16T03:45:07;101277.10;;;-6.51;39.19
69219;BME280;56232;53.384;-2.732;2022-12-16T03:47:30;101276.56;;;-6.46;39.24
69219;BME280;56232;53.384;-2.732;2022-12-16T03:49:56;101281.33;;;-6.40;39.24
69219;BME280;56232;53.384;-2.732;2022-12-16T03:52:21;101288.43;;;-6.79;38.97
69219;BME280;56232;53.384;-2.732;2022-12-16T03:54:52;101292.21;;;-6.77;38.60
69219;BME280;56232;53.384;-2.732;2022-12-16T03:57:12;101292.76;;;-6.90;38.46
69219;BME280;56232;53.384;-2.732;2022-12-16T03:59:38;101293.68;;;-6.96;38.45
69219;BME280;56232;53.384;-2.732;2022-12-16T04:02:03;101294.57;;;-6.76;38.47
69219;BME280;56232;53.384;-2.732;2022-12-16T04:04:29;101296.54;;;-7.24;38.28
69219;BME280;56232;53.384;-2.732;2022-12-16T04:06:54;101291.02;;;-6.68;38.18
69219;BME280;56232;53.384;-2.732;2022-12-16T04:09:19;101289.31;;;-6.98;38.44
69219;BME280;56232;53.384;-2.732;2022-12-16T04:11:45;101293.30;;;-6.12;38.62
69219;BME280;56232;53.384;-2.732;2022-12-16T04:14:11;101304.32;;;-5.82;38.51
69219;BME280;56232;53.384;-2.732;2022-12-16T04:16:35;101298.57;;;-5.79;38.09
69219;BME280;56232;53.384;-2.732;2022-12-16T04:19:10;101297.42;;;-5.77;38.18
69219;BME280;56232;53.384;-2.732;2022-12-16T04:21:27;101300.13;;;-6.46;38.04
69219;BME280;56232;53.384;-2.732;2022-12-16T04:23:56;101304.22;;;-6.06;38.18
69219;BME280;56232;53.384;-2.732;2022-12-16T04:26:18;101300.21;;;-6.10;38.03
69219;BME280;56232;53.384;-2.732;2022-12-16T04:28:50;101295.01;;;-6.29;38.23
69219;BME280;56232;53.384;-2.732;2022-12-16T04:31:09;101296.88;;;-6.48;38.33
69219;BME280;56232;53.384;-2.732;2022-12-16T04:33:35;101296.30;;;-7.02;38.40
69219;BME280;56232;53.384;-2.732;2022-12-16T04:36:00;101303.07;;;-6.22;38.46
69219;BME280;56232;53.384;-2.732;2022-12-16T04:38:26;101300.38;;;-5.91;38.37
69219;BME280;56232;53.384;-2.732;2022-12-16T04:40:52;101294.57;;;-6.01;38.08
69219;BME280;56232;53.384;-2.732;2022-12-16T04:43:17;101295.71;;;-6.25;38.24
69219;BME280;56232;53.384;-2.732;2022-12-16T04:45:45;101294.37;;;-6.28;38.14
69219;BME280;56232;53.384;-2.732;2022-12-16T04:48:09;101293.70;;;-6.28;38.02
69219;BME280;56232;53.384;-2.732;2022-12-16T04:50:34;101293.27;;;-6.36;38.04
69219;BME280;56232;53.384;-2.732;2022-12-16T04:52:59;101290.25;;;-6.48;38.10
69219;BME280;56232;53.384;-2.732;2022-12-16T04:55:24;101285.97;;;-6.65;38.08
69219;BME280;56232;53.384;-2.732;2022-12-16T04:57:52;101284.18;;;-7.31;38.14
69219;BME280;56232;53.384;-2.732;2022-12-16T05:00:15;101283.45;;;-6.76;38.18
69219;BME280;56232;53.384;-2.732;2022-12-16T05:02:41;101277.14;;;-6.87;38.17
69219;BME280;56232;53.384;-2.732;2022-12-16T05:05:06;101277.45;;;-6.87;38.28
69219;BME280;56232;53.384;-2.732;2022-12-16T05:07:31;101275.51;;;-6.76;38.22
69219;BME280;56232;53.384;-2.732;2022-12-16T05:09:57;101272.63;;;-6.59;38.29
69219;BME280;56232;53.384;-2.732;2022-12-16T05:12:22;101268.56;;;-7.14;38.23
69219;BME280;56232;53.384;-2.732;2022-12-16T05:14:48;101270.90;;;-6.54;38.12
69219;BME280;56232;53.384;-2.732;2022-12-16T05:17:13;101270.91;;;-6.26;38.08
69219;BME280;56232;53.384;-2.732;2022-12-16T05:19:39;101271.45;;;-7.00;37.96
69219;BME280;56232;53.384;-2.732;2022-12-16T05:22:04;101271.13;;;-6.80;38.22
69219;BME280;56232;53.384;-2.732;2022-12-16T05:24:30;101277.11;;;-6.86;38.34
69219;BME280;56232;53.384;-2.732;2022-12-16T05:26:55;101277.92;;;-6.70;38.22
69219;BME280;56232;53.384;-2.732;2022-12-16T05:29:20;101277.16;;;-7.34;38.09
69219;BME280;56232;53.384;-2.732;2022-12-16T05:31:45;101275.30;;;-7.53;38.23
69219;BME280;56232;53.384;-2.732;2022-12-16T05:34:11;101275.06;;;-7.55;38.34
69219;BME280;56232;53.384;-2.732;2022-12-16T05:36:37;101276.15;;;-6.56;38.21
69219;BME280;56232;53.384;-2.732;2022-12-16T05:39:03;101276.40;;;-7.69;38.10
69219;BME280;56232;53.384;-2.732;2022-12-16T05:41:28;101274.42;;;-7.26;38.29
69219;BME280;56232;53.384;-2.732;2022-12-16T05:43:53;101273.84;;;-6.88;38.26
69219;BME280;56232;53.384;-2.732;2022-12-16T05:46:19;101276.32;;;-7.04;38.40
69219;BME280;56232;53.384;-2.732;2022-12-16T05:48:44;101281.25;;;-7.07;38.52
69219;BME280;56232;53.384;-2.732;2022-12-16T05:51:10;101278.52;;;-7.11;38.57
69219;BME280;56232;53.384;-2.732;2022-12-16T05:53:35;101284.20;;;-7.08;38.69
69219;BME280;56232;53.384;-2.732;2022-12-16T05:56:00;101285.38;;;-7.48;38.39
69219;BME280;56232;53.384;-2.732;2022-12-16T05:58:26;101286.08;;;-7.10;38.38
69219;BME280;56232;53.384;-2.732;2022-12-16T06:00:52;101286.42;;;-7.43;38.55
69219;BME280;56232;53.384;-2.732;2022-12-16T06:03:17;101282.61;;;-7.52;38.60
69219;BME280;56232;53.384;-2.732;2022-12-16T06:05:43;101283.78;;;-7.54;38.80
69219;BME280;56232;53.384;-2.732;2022-12-16T06:08:09;101281.98;;;-7.41;38.74
69219;BME280;56232;53.384;-2.732;2022-12-16T06:10:34;101280.79;;;-7.40;38.74
69219;BME280;56232;53.384;-2.732;2022-12-16T06:13:00;101281.85;;;-7.39;38.73
69219;BME280;56232;53.384;-2.732;2022-12-16T06:15:25;101279.93;;;-7.41;38.73
69219;BME280;56232;53.384;-2.732;2022-12-16T06:17:51;101281.93;;;-7.35;38.70
69219;BME280;56232;53.384;-2.732;2022-12-16T06:20:16;101277.25;;;-8.36;38.72
69219;BME280;56232;53.384;-2.732;2022-12-16T06:22:42;101277.58;;;-7.37;38.63
69219;BME280;56232;53.384;-2.732;2022-12-16T06:25:07;101279.33;;;-7.51;38.58
69219;BME280;56232;53.384;-2.732;2022-12-16T06:27:32;101278.32;;;-8.10;38.62
69219;BME280;56232;53.384;-2.732;2022-12-16T06:29:57;101279.61;;;-7.70;38.72
69219;BME280;56232;53.384;-2.732;2022-12-16T06:32:23;101284.48;;;-7.61;38.77
69219;BME280;56232;53.384;-2.732;2022-12-16T06:34:48;101286.08;;;-7.52;38.82
69219;BME280;56232;53.384;-2.732;2022-12-16T06:37:21;101286.78;;;-7.52;38.70
69219;BME280;56232;53.384;-2.732;2022-12-16T06:39:39;101283.70;;;-7.54;38.77
69219;BME280;56232;53.384;-2.732;2022-12-16T06:42:05;101287.93;;;-8.06;38.71
69219;BME280;56232;53.384;-2.732;2022-12-16T06:44:30;101290.19;;;-7.60;38.75
69219;BME280;56232;53.384;-2.732;2022-12-16T06:46:56;101291.16;;;-7.59;38.75
69219;BME280;56232;53.384;-2.732;2022-12-16T06:49:22;101294.80;;;-8.01;38.80
69219;BME280;56232;53.384;-2.732;2022-12-16T06:51:47;101296.08;;;-7.50;38.70
69219;BME280;56232;53.384;-2.732;2022-12-16T06:54:12;101301.18;;;-7.70;38.73
69219;BME280;56232;53.384;-2.732;2022-12-16T06:56:37;101301.81;;;-7.79;38.84
69219;BME280;56232;53.384;-2.732;2022-12-16T06:59:03;101299.66;;;-7.92;38.70
69219;BME280;56232;53.384;-2.732;2022-12-16T07:01:28;101301.66;;;-8.08;38.95
69219;BME280;56232;53.384;-2.732;2022-12-16T07:03:53;101304.75;;;-8.12;39.11
69219;BME280;56232;53.384;-2.732;2022-12-16T07:06:18;101308.09;;;-7.89;39.13
69219;BME280;56232;53.384;-2.732;2022-12-16T07:08:44;101309.73;;;-7.73;39.13
69219;BME280;56232;53.384;-2.732;2022-12-16T07:11:09;101307.41;;;-6.40;39.06
69219;BME280;56232;53.384;-2.732;2022-12-16T07:13:34;101304.25;;;-7.39;38.73
69219;BME280;56232;53.384;-2.732;2022-12-16T07:16:00;101305.23;;;-7.54;38.88
69219;BME280;56232;53.384;-2.732;2022-12-16T07:18:25;101304.82;;;-7.54;38.91
69219;BME280;56232;53.384;-2.732;2022-12-16T07:20:56;101306.02;;;-7.61;38.83
69219;BME280;56232;53.384;-2.732;2022-12-16T07:23:16;101308.00;;;-7.16;38.91
69219;BME280;56232;53.384;-2.732;2022-12-16T07:25:42;101308.89;;;-7.75;39.14
69219;BME280;56232;53.384;-2.732;2022-12-16T07:28:07;101305.89;;;-7.72;39.01
69219;BME280;56232;53.384;-2.732;2022-12-16T07:30:33;101310.56;;;-7.64;38.97
69219;BME280;56232;53.384;-2.732;2022-12-16T07:32:58;101310.85;;;-7.62;38.96
69219;BME280;56232;53.384;-2.732;2022-12-16T07:35:24;101309.76;;;-7.58;38.83
69219;BME280;56232;53.384;-2.732;2022-12-16T07:37:49;101309.97;;;-7.59;38.83
69219;BME280;56232;53.384;-2.732;2022-12-16T07:40:14;101310.16;;;-6.54;38.92
69219;BME280;56232;53.384;-2.732;2022-12-16T07:42:40;101310.75;;;-7.69;38.83
69219;BME280;56232;53.384;-2.732;2022-12-16T07:45:05;101312.21;;;-7.73;38.99
69219;BME280;56232;53.384;-2.732;2022-12-16T07:47:35;101316.33;;;-7.77;39.01
69219;BME280;56232;53.384;-2.732;2022-12-16T07:49:56;101321.15;;;-7.62;39.35
69219;BME280;56232;53.384;-2.732;2022-12-16T07:52:21;101320.98;;;-7.26;39.16
69219;BME280;56232;53.384;-2.732;2022-12-16T07:54:46;101326.92;;;-7.06;39.29
69219;BME280;56232;53.384;-2.732;2022-12-16T07:57:12;101328.53;;;-7.75;39.17
69219;BME280;56232;53.384;-2.732;2022-12-16T07:59:37;101329.12;;;-7.01;39.20
69219;BME280;56232;53.384;-2.732;2022-12-16T08:02:03;101330.20;;;-7.29;39.18
69219;BME280;56232;53.384;-2.732;2022-12-16T08:04:28;101329.59;;;-6.28;38.99
69219;BME280;56232;53.384;-2.732;2022-12-16T08:06:54;101329.17;;;-6.47;38.50
69219;BME280;56232;53.384;-2.732;2022-12-16T08:09:20;101329.88;;;-6.22;38.69
69219;BME280;56232;53.384;-2.732;2022-12-16T08:11:45;101329.17;;;-5.90;38.79
69219;BME280;56232;53.384;-2.732;2022-12-16T08:14:11;101334.17;;;-5.71;38.00
69219;BME280;56232;53.384;-2.732;2022-12-16T08:16:41;101333.62;;;-5.35;38.49
69219;BME280;56232;53.384;-2.732;2022-12-16T08:19:01;101338.93;;;-6.05;37.94
69219;BME280;56232;53.384;-2.732;2022-12-16T08:21:27;101341.70;;;-5.98;38.29
69219;BME280;56232;53.384;-2.732;2022-12-16T08:23:52;101348.22;;;-5.62;38.05
69219;BME280;56232;53.384;-2.732;2022-12-16T08:26:18;101351.50;;;-5.58;37.99
69219;BME280;56232;53.384;-2.732;2022-12-16T08:28:43;101351.56;;;-5.31;38.15
69219;BME280;56232;53.384;-2.732;2022-12-16T08:31:14;101350.35;;;-5.32;37.98
69219;BME280;56232;53.384;-2.732;2022-12-16T08:33:34;101355.20;;;-5.87;38.10
69219;BME280;56232;53.384;-2.732;2022-12-16T08:36:00;101354.26;;;-5.18;37.91
69219;BME280;56232;53.384;-2.732;2022-12-16T08:38:25;101353.91;;;-5.20;37.67
69219;BME280;56232;53.384;-2.732;2022-12-16T08:40:53;101350.58;;;-5.25;37.71
69219;BME280;56232;53.384;-2.732;2022-12-16T08:43:16;101357.52;;;-5.20;37.68
69219;BME280;56232;53.384;-2.732;2022-12-16T08:45:42;101360.50;;;-5.01;37.71
69219;BME280;56232;53.384;-2.732;2022-12-16T08:48:08;101360.57;;;-5.03;37.34
69219;BME280;56232;53.384;-2.732;2022-12-16T08:50:33;101359.28;;;-5.15;37.55
69219;BME280;56232;53.384;-2.732;2022-12-16T08:52:59;101362.57;;;-5.23;37.79
69219;BME280;56232;53.384;-2.732;2022-12-16T08:55:24;101360.84;;;-5.09;37.62
69219;BME280;56232;53.384;-2.732;2022-12-16T08:57:52;101363.41;;;-4.95;37.48
69219;BME280;56232;53.384;-2.732;2022-12-16T09:00:15;101365.83;;;-4.99;37.68
69219;BME280;56232;53.384;-2.732;2022-12-16T09:02:40;101363.35;;;-4.83;37.49
69219;BME280;56232;53.384;-2.732;2022-12-16T09:05:06;101362.22;;;-5.20;37.43
69219;BME280;56232;53.384;-2.732;2022-12-16T09:07:31;101361.09;;;-4.57;37.53
69219;BME280;56232;53.384;-2.732;2022-12-16T09:09:56;101371.23;;;-4.49;37.41
69219;BME280;56232;53.384;-2.732;2022-12-16T09:12:27;101370.17;;;-4.31;37.69
69219;BME280;56232;53.384;-2.732;2022-12-16T09:14:46;101373.04;;;-4.61;37.74
69219;BME280;56232;53.384;-2.732;2022-12-16T09:17:12;101378.61;;;-4.87;37.82
69219;BME280;56232;53.384;-2.732;2022-12-16T09:19:37;101379.31;;;-4.48;37.66
69219;BME280;56232;53.384;-2.732;2022-12-16T09:22:02;101380.04;;;-3.71;37.12
69219;BME280;56232;53.384;-2.732;2022-12-16T09:24:28;101380.92;;;-4.22;36.95
69219;BME280;56232;53.384;-2.732;2022-12-16T09:26:53;101386.33;;;-3.52;37.10
69219;BME280;56232;53.384;-2.732;2022-12-16T09:29:19;101390.88;;;-3.85;37.05
69219;BME280;56232;53.384;-2.732;2022-12-16T09:31:44;101394.20;;;-4.22;37.13
69219;BME280;56232;53.384;-2.732;2022-12-16T09:34:15;101393.13;;;-3.52;37.21
69219;BME280;56232;53.384;-2.732;2022-12-16T09:36:36;101390.77;;;-2.88;37.11
69219;BME280;56232;53.384;-2.732;2022-12-16T09:39:01;101390.65;;;-3.25;37.29
69219;BME280;56232;53.384;-2.732;2022-12-16T09:41:36;101391.61;;;-3.26;36.79
69219;BME280;56232;53.384;-2.732;2022-12-16T09:43:57;101393.87;;;-3.26;37.07
69219;BME280;56232;53.384;-2.732;2022-12-16T09:46:20;101395.34;;;-3.37;37.00
69219;BME280;56232;53.384;-2.732;2022-12-16T09:48:46;101392.85;;;-2.66;36.77
69219;BME280;56232;53.384;-2.732;2022-12-16T09:51:08;101395.15;;;-3.73;36.72
69219;BME280;56232;53.384;-2.732;2022-12-16T09:53:35;101396.10;;;-3.53;36.61
69219;BME280;56232;53.384;-2.732;2022-12-16T09:56:00;101399.41;;;-3.55;36.35
69219;BME280;56232;53.384;-2.732;2022-12-16T09:58:27;101402.24;;;-3.43;36.65
69219;BME280;56232;53.384;-2.732;2022-12-16T10:00:50;101405.00;;;-3.37;36.43
69219;BME280;56232;53.384;-2.732;2022-12-16T10:03:20;101407.13;;;-3.27;36.72
69219;BME280;56232;53.384;-2.732;2022-12-16T10:05:46;101408.33;;;-2.38;36.43
69219;BME280;56232;53.384;-2.732;2022-12-16T10:08:17;101411.28;;;-2.85;36.56
69219;BME280;56232;53.384;-2.732;2022-12-16T10:10:37;101414.47;;;-2.65;36.47
69219;BME280;56232;53.384;-2.732;2022-12-16T10:13:03;101416.51;;;-2.21;36.51
69219;BME280;56232;53.384;-2.732;2022-12-16T10:15:30;101409.44;;;-1.95;36.29
69219;BME280;56232;53.384;-2.732;2022-12-16T10:17:47;101406.90;;;-1.82;36.08
69219;BME280;56232;53.384;-2.732;2022-12-16T10:20:28;101407.26;;;-1.73;36.13
69219;BME280;56232;53.384;-2.732;2022-12-16T10:22:42;101406.25;;;-1.58;36.03
69219;BME280;56232;53.384;-2.732;2022-12-16T10:25:10;101407.93;;;-2.08;36.22
69219;BME280;56232;53.384;-2.732;2022-12-16T10:27:35;101405.79;;;-1.32;36.03
69219;BME280;56232;53.384;-2.732;2022-12-16T10:29:55;101404.88;;;-1.41;36.04
69219;BME280;56232;53.384;-2.732;2022-12-16T10:32:26;101403.88;;;-1.47;36.03
69219;BME280;56232;53.384;-2.732;2022-12-16T10:34:45;101402.51;;;-1.60;36.10
69219;BME280;56232;53.384;-2.732;2022-12-16T10:37:15;101396.89;;;-1.90;36.29
69219;BME280;56232;53.384;-2.732;2022-12-16T10:39:39;101392.39;;;-1.32;36.18
69219;BME280;56232;53.384;-2.732;2022-12-16T10:42:02;101391.57;;;-2.45;36.22
69219;BME280;56232;53.384;-2.732;2022-12-16T10:44:32;101389.05;;;-1.71;36.28
69219;BME280;56232;53.384;-2.732;2022-12-16T10:46:53;101388.82;;;-1.72;36.45
69219;BME280;56232;53.384;-2.732;2022-12-16T10:49:19;101388.02;;;-1.82;36.46
69219;BME280;56232;53.384;-2.732;2022-12-16T10:51:43;101386.44;;;-2.20;36.61
69219;BME280;56232;53.384;-2.732;2022-12-16T10:54:23;101383.62;;;-1.69;36.57
69219;BME280;56232;53.384;-2.732;2022-12-16T10:56:47;101379.20;;;-1.72;36.44
69219;BME280;56232;53.384;-2.732;2022-12-16T10:59:03;101382.06;;;-1.84;36.79
69219;BME280;56232;53.384;-2.732;2022-12-16T11:01:26;101384.52;;;-2.37;36.72
69219;BME280;56232;53.384;-2.732;2022-12-16T11:03:52;101381.72;;;-1.85;36.85
69219;BME280;56232;53.384;-2.732;2022-12-16T11:06:20;101379.30;;;-1.76;36.94
69219;BME280;56232;53.384;-2.732;2022-12-16T11:08:41;101379.03;;;-1.58;37.02
69219;BME280;56232;53.384;-2.732;2022-12-16T11:11:18;101377.75;;;-1.31;37.09
69219;BME280;56232;53.384;-2.732;2022-12-16T11:13:35;101372.49;;;-1.19;37.10
69219;BME280;56232;53.384;-2.732;2022-12-16T11:16:05;101368.51;;;-1.60;36.99
69219;BME280;56232;53.384;-2.732;2022-12-16T11:18:24;101368.95;;;-1.71;36.98
69219;BME280;56232;53.384;-2.732;2022-12-16T11:23:17;101373.98;;;-1.86;37.23
69219;BME280;56232;53.384;-2.732;2022-12-16T11:25:40;101369.62;;;-1.67;37.33
69219;BME280;56232;53.384;-2.732;2022-12-16T11:28:13;101367.60;;;-1.63;37.27
69219;BME280;56232;53.384;-2.732;2022-12-16T11:30:32;101363.38;;;-1.81;37.05
69219;BME280;56232;53.384;-2.732;2022-12-16T11:32:59;101362.46;;;-1.45;37.27
69219;BME280;56232;53.384;-2.732;2022-12-16T11:35:25;101361.46;;;-1.80;37.39
69219;BME280;56232;53.384;-2.732;2022-12-16T11:37:49;101360.87;;;-1.80;37.49
69219;BME280;56232;53.384;-2.732;2022-12-16T11:40:15;101360.74;;;-1.71;37.45
69219;BME280;56232;53.384;-2.732;2022-12-16T11:42:38;101357.02;;;-1.69;37.27
69219;BME280;56232;53.384;-2.732;2022-12-16T11:45:05;101356.23;;;-1.54;37.36
69219;BME280;56232;53.384;-2.732;2022-12-16T11:47:35;101352.66;;;-1.71;37.03
69219;BME280;56232;53.384;-2.732;2022-12-16T11:49:56;101349.01;;;-0.56;37.31
69219;BME280;56232;53.384;-2.732;2022-12-16T11:52:21;101348.44;;;-0.84;37.12
69219;BME280;56232;53.384;-2.732;2022-12-16T11:54:53;101346.88;;;-1.31;37.04
69219;BME280;56232;53.384;-2.732;2022-12-16T11:57:18;101345.59;;;-1.27;37.24
69219;BME280;56232;53.384;-2.732;2022-12-16T11:59:39;101338.90;;;-1.17;37.14
69219;BME280;56232;53.384;-2.732;2022-12-16T12:02:07;101339.68;;;-1.30;37.23
69219;BME280;56232;53.384;-2.732;2022-12-16T12:04:27;101340.88;;;-1.36;37.25
69219;BME280;56232;53.384;-2.732;2022-12-16T12:07:12;101339.73;;;-0.29;37.40
69219;BME280;56232;53.384;-2.732;2022-12-16T12:09:25;101339.68;;;-1.06;37.42
69219;BME280;56232;53.384;-2.732;2022-12-16T12:11:49;101346.23;;;-1.01;37.42
69219;BME280;56232;53.384;-2.732;2022-12-16T12:14:16;101341.69;;;-0.69;37.22
69219;BME280;56232;53.384;-2.732;2022-12-16T12:16:45;101340.05;;;-0.66;37.44
69219;BME280;56232;53.384;-2.732;2022-12-16T12:19:05;101338.46;;;-0.43;37.31
69219;BME280;56232;53.384;-2.732;2022-12-16T12:21:32;101341.78;;;-1.01;37.55
69219;BME280;56232;53.384;-2.732;2022-12-16T12:24:03;101339.76;;;-0.04;37.59
69219;BME280;56232;53.384;-2.732;2022-12-16T12:26:26;101339.62;;;-0.91;37.46
69219;BME280;56232;53.384;-2.732;2022-12-16T12:28:48;101335.64;;;-0.83;37.42
69219;BME280;56232;53.384;-2.732;2022-12-16T12:31:17;101334.80;;;-0.83;37.44
69219;BME280;56232;53.384;-2.732;2022-12-16T12:33:39;101334.66;;;-0.77;37.53
69219;BME280;56232;53.384;-2.732;2022-12-16T12:36:03;101337.37;;;-0.71;37.31
69219;BME280;56232;53.384;-2.732;2022-12-16T12:38:36;101338.72;;;-0.35;37.25